Fort Nelson Airport
CYYE : rendu visible

Aérodrome :











RETROUVEZ-NOUS SUR...

 
LOGIN :

S'inscrire | Disclaimer

   EN    FR    IT 

 









Légende :    VFR   VFR Marginal   IFR   IFR Intensif   IFR Très Intensif
Visi : 
Plafond : 
>= 8 km
>= 3000ft
5 à 8 km
1000 à 3000 ft
1500m à 5 km
500 à 1000 ft
800 à 1500m
200 à 500 ft
< 800m
< 200 ft
Symboles :   Orages  Brouillard  Fortes neiges  Fortes précipitations  Vent > 20 kt






- Altitude de l'aérodrome : 1253 ft
- Code IATA : YYE


CYYE - Fort Nelson

DERNIER METAR :
  • 241400Z 15004KT 15SM SCT140 M12/M14 A3019 RMK AC4 SLP255

METARs EXPIRÉS :
  • 241300Z 24004KT 150V250 15SM FEW130 M15/M16 A3018 RMK AC2 SLP251
  • 241200Z 00000KT 15SM FEW140 M13/M15 A3015 RMK AC2 SLP242

TAF TAF CYYE
Valide du 24 à 13h jusqu'au 25 à 01h UTC


241238Z 2413/2501 VRB03KT P6SM SCT140
FM242300 VRB03KT P6SM SCT020 BKN040
TEMPO 2423/2501 5SM -SN RMK NXT FCST BY 241900Z



MET'MAP, la Météo Aéronautique d'un coup d'oeil ! - Copyright ORBIFLY Décembre 2007 - Disclaimer

ORBIFLY MET'MAP TEAM :

Programmation & Développement : Alexandra Zaïnal
Sur une idée originale de : Baudouin d'Aumeries
Assistance à la programmation : Marc-Olivier Méhu
Soutien technique & logistique : Manuel Goepfert

Contact : metmap@orbifly.com




SOURCES & CREDITS :

   NOAA       Earth
Advisory